sensor_id;sensor_type;location;lat;lon;timestamp;pressure;altitude;pressure_sealevel;temperature;humidity
10482;BME280;5288;42.334;23.876;2022-11-15T00:00:30;56515.84;;;-140.56;78.84
10482;BME280;5288;42.334;23.876;2022-11-15T00:02:57;56509.91;;;-140.56;78.22
10482;BME280;5288;42.334;23.876;2022-11-15T00:05:26;56519.81;;;-140.56;77.75
10482;BME280;5288;42.334;23.876;2022-11-15T00:07:53;56523.75;;;-140.56;77.78
10482;BME280;5288;42.334;23.876;2022-11-15T00:10:20;56494.09;;;-140.56;77.87
10482;BME280;5288;42.334;23.876;2022-11-15T00:12:47;56480.28;;;-140.56;78.15
10482;BME280;5288;42.334;23.876;2022-11-15T00:15:14;56515.84;;;-140.56;78.50
10482;BME280;5288;42.334;23.876;2022-11-15T00:17:41;56488.19;;;-140.56;78.48
10482;BME280;5288;42.334;23.876;2022-11-15T00:20:09;56504.00;;;-140.56;78.27
10482;BME280;5288;42.334;23.876;2022-11-15T00:22:38;56513.88;;;-140.56;78.20
10482;BME280;5288;42.334;23.876;2022-11-15T00:25:06;56521.78;;;-140.56;78.04
10482;BME280;5288;42.334;23.876;2022-11-15T00:27:33;56500.03;;;-140.56;78.34
10482;BME280;5288;42.334;23.876;2022-11-15T00:30:00;56535.59;;;-140.56;77.97
10482;BME280;5288;42.334;23.876;2022-11-15T00:32:31;56523.75;;;-140.56;77.78
10482;BME280;5288;42.334;23.876;2022-11-15T00:34:58;56513.88;;;-140.56;77.70
10482;BME280;5288;42.334;23.876;2022-11-15T00:37:25;56492.13;;;-140.56;77.38
10482;BME280;5288;42.334;23.876;2022-11-15T00:39:53;56521.78;;;-140.56;77.28
10482;BME280;5288;42.334;23.876;2022-11-15T00:42:20;56502.00;;;-140.56;77.06
10482;BME280;5288;42.334;23.876;2022-11-15T00:44:48;56561.31;;;-140.56;76.74
10482;BME280;5288;42.334;23.876;2022-11-15T00:47:14;56545.50;;;-140.56;76.87
10482;BME280;5288;42.334;23.876;2022-11-15T00:49:41;56523.75;;;-140.56;77.35
10482;BME280;5288;42.334;23.876;2022-11-15T00:52:08;56509.91;;;-140.56;77.62
10482;BME280;5288;42.334;23.876;2022-11-15T00:54:36;56498.06;;;-140.56;77.17
10482;BME280;5288;42.334;23.876;2022-11-15T00:57:05;56511.91;;;-140.56;77.21
10482;BME280;5288;42.334;23.876;2022-11-15T00:59:32;56525.72;;;-140.56;76.74
10482;BME280;5288;42.334;23.876;2022-11-15T01:01:59;56523.75;;;-140.56;76.77
10482;BME280;5288;42.334;23.876;2022-11-15T01:04:26;56502.00;;;-140.56;76.87
10482;BME280;5288;42.334;23.876;2022-11-15T01:06:53;56492.13;;;-140.56;76.77
10482;BME280;5288;42.334;23.876;2022-11-15T01:09:20;56513.88;;;-140.56;76.66
10482;BME280;5288;42.334;23.876;2022-11-15T01:11:47;56545.50;;;-140.56;76.71
10482;BME280;5288;42.334;23.876;2022-11-15T01:14:16;56535.59;;;-140.56;77.03
10482;BME280;5288;42.334;23.876;2022-11-15T01:16:43;56511.91;;;-140.56;77.38
10482;BME280;5288;42.334;23.876;2022-11-15T01:19:10;56507.94;;;-140.56;77.30
10482;BME280;5288;42.334;23.876;2022-11-15T01:21:36;56494.09;;;-140.56;77.28
10482;BME280;5288;42.334;23.876;2022-11-15T01:24:04;56517.81;;;-140.56;76.75
10482;BME280;5288;42.334;23.876;2022-11-15T01:26:32;56515.84;;;-140.56;76.82
10482;BME280;5288;42.334;23.876;2022-11-15T01:28:59;56515.84;;;-140.56;77.14
10482;BME280;5288;42.334;23.876;2022-11-15T01:31:28;56519.81;;;-140.56;77.26
10482;BME280;5288;42.334;23.876;2022-11-15T01:33:55;56513.88;;;-140.56;77.25
10482;BME280;5288;42.334;23.876;2022-11-15T01:36:22;56490.16;;;-140.56;77.33
10482;BME280;5288;42.334;23.876;2022-11-15T01:38:53;56494.09;;;-140.56;77.14
10482;BME280;5288;42.334;23.876;2022-11-15T01:41:22;56500.03;;;-140.56;76.96
10482;BME280;5288;42.334;23.876;2022-11-15T01:43:53;56517.81;;;-140.56;76.68
10482;BME280;5288;42.334;23.876;2022-11-15T01:46:29;56519.81;;;-140.56;76.67
10482;BME280;5288;42.334;23.876;2022-11-15T01:48:58;56492.13;;;-140.56;76.36
10482;BME280;5288;42.334;23.876;2022-11-15T01:51:29;56500.03;;;-140.56;76.21
10482;BME280;5288;42.334;23.876;2022-11-15T01:54:00;56462.47;;;-140.56;76.26
10482;BME280;5288;42.334;23.876;2022-11-15T01:56:31;56462.47;;;-140.56;76.21
10482;BME280;5288;42.334;23.876;2022-11-15T01:59:02;56492.13;;;-140.56;76.26
10482;BME280;5288;42.334;23.876;2022-11-15T02:01:32;56509.91;;;-140.56;76.40
10482;BME280;5288;42.334;23.876;2022-11-15T02:04:02;56511.91;;;-140.56;76.45
10482;BME280;5288;42.334;23.876;2022-11-15T02:06:31;56462.47;;;-140.56;76.42
10482;BME280;5288;42.334;23.876;2022-11-15T02:08:59;56539.56;;;-140.56;76.54
10482;BME280;5288;42.334;23.876;2022-11-15T02:11:27;56488.19;;;-140.56;76.65
10482;BME280;5288;42.334;23.876;2022-11-15T02:13:54;56511.91;;;-140.56;76.43
10482;BME280;5288;42.334;23.876;2022-11-15T02:16:28;56464.47;;;-140.56;76.65
10482;BME280;5288;42.334;23.876;2022-11-15T02:19:08;56490.16;;;-140.56;76.62
10482;BME280;5288;42.334;23.876;2022-11-15T02:21:43;56519.81;;;-140.56;76.48
10482;BME280;5288;42.334;23.876;2022-11-15T02:24:49;56523.75;;;-140.56;76.26
10482;BME280;5288;42.334;23.876;2022-11-15T02:27:46;56498.06;;;-140.56;76.16
10482;BME280;5288;42.334;23.876;2022-11-15T02:30:24;56505.97;;;-140.56;76.73
10482;BME280;5288;42.334;23.876;2022-11-15T02:32:54;56509.91;;;-140.56;76.79
10482;BME280;5288;42.334;23.876;2022-11-15T02:35:29;56476.31;;;-140.56;76.86
10482;BME280;5288;42.334;23.876;2022-11-15T02:38:05;56517.81;;;-140.56;77.02
10482;BME280;5288;42.334;23.876;2022-11-15T02:40:41;56509.91;;;-140.56;77.16
10482;BME280;5288;42.334;23.876;2022-11-15T02:43:15;56527.72;;;-140.56;77.28
10482;BME280;5288;42.334;23.876;2022-11-15T02:46:07;56478.28;;;-140.56;77.40
10482;BME280;5288;42.334;23.876;2022-11-15T02:48:37;56509.91;;;-140.56;78.05
10482;BME280;5288;42.334;23.876;2022-11-15T02:51:04;56513.88;;;-140.56;78.45
10482;BME280;5288;42.334;23.876;2022-11-15T02:53:32;56504.00;;;-140.56;78.81
10482;BME280;5288;42.334;23.876;2022-11-15T02:55:59;56490.16;;;-140.56;79.07
10482;BME280;5288;42.334;23.876;2022-11-15T02:58:48;56480.28;;;-140.56;78.72
10482;BME280;5288;42.334;23.876;2022-11-15T03:01:30;56492.13;;;-140.56;78.94
10482;BME280;5288;42.334;23.876;2022-11-15T03:04:06;56484.22;;;-140.56;79.20
10482;BME280;5288;42.334;23.876;2022-11-15T03:06:40;56484.22;;;-140.56;79.20
10482;BME280;5288;42.334;23.876;2022-11-15T03:09:13;56498.06;;;-140.56;79.04
10482;BME280;5288;42.334;23.876;2022-11-15T03:11:46;56480.28;;;-140.56;79.13
10482;BME280;5288;42.334;23.876;2022-11-15T03:14:20;56523.75;;;-140.56;79.26
10482;BME280;5288;42.334;23.876;2022-11-15T03:16:52;56515.84;;;-140.56;79.31
10482;BME280;5288;42.334;23.876;2022-11-15T03:19:30;56511.91;;;-140.56;79.45
10482;BME280;5288;42.334;23.876;2022-11-15T03:22:03;56519.81;;;-140.56;79.45
10482;BME280;5288;42.334;23.876;2022-11-15T03:24:33;56478.28;;;-140.56;79.54
10482;BME280;5288;42.334;23.876;2022-11-15T03:27:03;56505.97;;;-140.56;79.31
10482;BME280;5288;42.334;23.876;2022-11-15T03:29:35;56480.28;;;-140.56;78.92
10482;BME280;5288;42.334;23.876;2022-11-15T03:32:09;56500.03;;;-140.56;79.02
10482;BME280;5288;42.334;23.876;2022-11-15T03:34:40;56504.00;;;-140.56;79.09
10482;BME280;5288;42.334;23.876;2022-11-15T03:37:10;56476.31;;;-140.56;79.24
10482;BME280;5288;42.334;23.876;2022-11-15T03:39:39;56513.88;;;-140.56;79.46
10482;BME280;5288;42.334;23.876;2022-11-15T03:42:14;56537.59;;;-140.56;79.47
10482;BME280;5288;42.334;23.876;2022-11-15T03:44:47;56521.78;;;-140.56;79.21
10482;BME280;5288;42.334;23.876;2022-11-15T03:47:22;56517.81;;;-140.56;79.56
10482;BME280;5288;42.334;23.876;2022-11-15T03:49:52;56515.84;;;-140.56;79.93
10482;BME280;5288;42.334;23.876;2022-11-15T03:52:21;56504.00;;;-140.56;80.25
10482;BME280;5288;42.334;23.876;2022-11-15T03:54:50;56462.47;;;-140.56;80.13
10482;BME280;5288;42.334;23.876;2022-11-15T03:57:17;56504.00;;;-140.56;79.73
10482;BME280;5288;42.334;23.876;2022-11-15T03:59:44;56474.34;;;-140.56;79.63
10482;BME280;5288;42.334;23.876;2022-11-15T04:02:11;56496.09;;;-140.56;79.44
10482;BME280;5288;42.334;23.876;2022-11-15T04:04:40;56507.94;;;-140.56;79.22
10482;BME280;5288;42.334;23.876;2022-11-15T04:07:07;56476.31;;;-140.56;79.35
10482;BME280;5288;42.334;23.876;2022-11-15T04:09:34;56496.09;;;-140.56;78.99
10482;BME280;5288;42.334;23.876;2022-11-15T04:12:23;56494.09;;;-140.56;78.71
10482;BME280;5288;42.334;23.876;2022-11-15T04:14:58;56507.94;;;-140.56;78.45
10482;BME280;5288;42.334;23.876;2022-11-15T04:17:39;56505.97;;;-140.56;78.77
10482;BME280;5288;42.334;23.876;2022-11-15T04:20:11;56507.94;;;-140.56;78.87
10482;BME280;5288;42.334;23.876;2022-11-15T04:22:56;56478.28;;;-140.56;78.62
10482;BME280;5288;42.334;23.876;2022-11-15T04:25:41;56529.69;;;-140.56;78.36
10482;BME280;5288;42.334;23.876;2022-11-15T04:28:09;56498.06;;;-140.56;78.21
10482;BME280;5288;42.334;23.876;2022-11-15T04:30:36;56504.00;;;-140.56;78.44
10482;BME280;5288;42.334;23.876;2022-11-15T04:33:04;56498.06;;;-140.56;78.47
10482;BME280;5288;42.334;23.876;2022-11-15T04:35:32;56496.09;;;-140.56;78.62
10482;BME280;5288;42.334;23.876;2022-11-15T04:37:59;56519.81;;;-140.56;78.72
10482;BME280;5288;42.334;23.876;2022-11-15T04:40:26;56504.00;;;-140.56;78.89
10482;BME280;5288;42.334;23.876;2022-11-15T04:42:52;56486.19;;;-140.56;79.08
10482;BME280;5288;42.334;23.876;2022-11-15T04:45:20;56535.59;;;-140.56;79.48
10482;BME280;5288;42.334;23.876;2022-11-15T04:47:47;56517.81;;;-140.56;79.32
10482;BME280;5288;42.334;23.876;2022-11-15T04:50:15;56509.91;;;-140.56;79.20
10482;BME280;5288;42.334;23.876;2022-11-15T04:52:50;56515.84;;;-140.56;79.47
10482;BME280;5288;42.334;23.876;2022-11-15T04:55:18;56513.88;;;-140.56;79.78
10482;BME280;5288;42.334;23.876;2022-11-15T04:57:45;56472.38;;;-140.56;79.76
10482;BME280;5288;42.334;23.876;2022-11-15T05:00:14;56502.00;;;-140.56;80.10
10482;BME280;5288;42.334;23.876;2022-11-15T05:02:42;56504.00;;;-140.56;79.95
10482;BME280;5288;42.334;23.876;2022-11-15T05:05:26;56494.09;;;-140.56;80.23
10482;BME280;5288;42.334;23.876;2022-11-15T05:07:55;56519.81;;;-140.56;80.33
10482;BME280;5288;42.334;23.876;2022-11-15T05:10:22;56509.91;;;-140.56;80.03
10482;BME280;5288;42.334;23.876;2022-11-15T05:12:49;56462.47;;;-140.56;80.03
10482;BME280;5288;42.334;23.876;2022-11-15T05:15:16;56504.00;;;-140.56;79.82
10482;BME280;5288;42.334;23.876;2022-11-15T05:17:43;56511.91;;;-140.56;80.08
10482;BME280;5288;42.334;23.876;2022-11-15T05:20:10;56541.53;;;-140.56;79.71
10482;BME280;5288;42.334;23.876;2022-11-15T05:22:38;56545.50;;;-140.56;79.57
10482;BME280;5288;42.334;23.876;2022-11-15T05:25:07;56519.81;;;-140.56;79.81
10482;BME280;5288;42.334;23.876;2022-11-15T05:27:34;56507.94;;;-140.56;79.81
10482;BME280;5288;42.334;23.876;2022-11-15T05:30:01;56519.81;;;-140.56;80.03
10482;BME280;5288;42.334;23.876;2022-11-15T05:32:28;56515.84;;;-140.56;80.36
10482;BME280;5288;42.334;23.876;2022-11-15T05:34:55;56484.22;;;-140.56;80.55
10482;BME280;5288;42.334;23.876;2022-11-15T05:37:23;56509.91;;;-140.56;80.53
10482;BME280;5288;42.334;23.876;2022-11-15T05:39:50;56531.66;;;-140.56;80.63
10482;BME280;5288;42.334;23.876;2022-11-15T05:42:18;56494.09;;;-140.56;80.75
10482;BME280;5288;42.334;23.876;2022-11-15T05:44:47;56517.81;;;-140.56;80.75
10482;BME280;5288;42.334;23.876;2022-11-15T05:47:17;56509.91;;;-140.56;81.19
10482;BME280;5288;42.334;23.876;2022-11-15T05:49:48;56513.88;;;-140.56;81.12
10482;BME280;5288;42.334;23.876;2022-11-15T05:52:19;56505.97;;;-140.56;80.91
10482;BME280;5288;42.334;23.876;2022-11-15T05:54:47;56500.03;;;-140.56;81.01
10482;BME280;5288;42.334;23.876;2022-11-15T05:57:15;56535.59;;;-140.56;80.99
10482;BME280;5288;42.334;23.876;2022-11-15T05:59:44;56507.94;;;-140.56;80.67
10482;BME280;5288;42.334;23.876;2022-11-15T06:02:11;56504.00;;;-140.56;80.35
10482;BME280;5288;42.334;23.876;2022-11-15T06:04:38;56509.91;;;-140.56;80.34
10482;BME280;5288;42.334;23.876;2022-11-15T06:07:05;56505.97;;;-140.56;80.16
10482;BME280;5288;42.334;23.876;2022-11-15T06:09:32;56492.13;;;-140.56;80.39
10482;BME280;5288;42.334;23.876;2022-11-15T06:11:59;56502.00;;;-140.56;80.23
10482;BME280;5288;42.334;23.876;2022-11-15T06:14:26;56502.00;;;-140.56;80.15
10482;BME280;5288;42.334;23.876;2022-11-15T06:16:54;56517.81;;;-140.56;80.12
10482;BME280;5288;42.334;23.876;2022-11-15T06:19:21;56498.06;;;-140.56;80.23
10482;BME280;5288;42.334;23.876;2022-11-15T06:21:48;56523.75;;;-140.56;79.92
10482;BME280;5288;42.334;23.876;2022-11-15T06:24:15;56521.78;;;-140.56;79.54
10482;BME280;5288;42.334;23.876;2022-11-15T06:26:42;56496.09;;;-140.56;79.34
10482;BME280;5288;42.334;23.876;2022-11-15T06:29:09;56517.81;;;-140.56;78.94
10482;BME280;5288;42.334;23.876;2022-11-15T06:31:36;56490.16;;;-140.56;78.88
10482;BME280;5288;42.334;23.876;2022-11-15T06:34:05;56500.03;;;-140.56;78.82
10482;BME280;5288;42.334;23.876;2022-11-15T06:36:34;56527.72;;;-140.56;78.63
10482;BME280;5288;42.334;23.876;2022-11-15T06:39:01;56476.31;;;-140.56;78.40
10482;BME280;5288;42.334;23.876;2022-11-15T06:41:28;56474.34;;;-140.56;77.90
10482;BME280;5288;42.334;23.876;2022-11-15T06:43:56;56490.16;;;-140.56;77.65
10482;BME280;5288;42.334;23.876;2022-11-15T06:46:23;56496.09;;;-140.56;77.74
10482;BME280;5288;42.334;23.876;2022-11-15T06:48:51;56504.00;;;-140.56;77.89
10482;BME280;5288;42.334;23.876;2022-11-15T06:51:19;56488.19;;;-140.56;77.80
10482;BME280;5288;42.334;23.876;2022-11-15T06:53:46;56505.97;;;-140.56;77.11
10482;BME280;5288;42.334;23.876;2022-11-15T06:56:13;56515.84;;;-140.56;77.31
10482;BME280;5288;42.334;23.876;2022-11-15T06:58:40;56482.25;;;-140.56;76.84
10482;BME280;5288;42.334;23.876;2022-11-15T07:01:09;56452.59;;;-140.56;77.28
10482;BME280;5288;42.334;23.876;2022-11-15T07:03:38;56488.19;;;-140.56;77.03
10482;BME280;5288;42.334;23.876;2022-11-15T07:06:06;56488.19;;;-140.56;76.99
10482;BME280;5288;42.334;23.876;2022-11-15T07:08:35;56500.03;;;-140.56;76.86
10482;BME280;5288;42.334;23.876;2022-11-15T07:11:05;56478.28;;;-140.56;76.44
10482;BME280;5288;42.334;23.876;2022-11-15T07:13:33;56474.34;;;-140.56;76.26
10482;BME280;5288;42.334;23.876;2022-11-15T07:16:02;56476.31;;;-140.56;76.30
10482;BME280;5288;42.334;23.876;2022-11-15T07:18:29;56486.19;;;-140.56;76.29
10482;BME280;5288;42.334;23.876;2022-11-15T07:21:01;56507.94;;;-140.56;76.21
10482;BME280;5288;42.334;23.876;2022-11-15T07:23:28;56480.28;;;-140.56;75.79
10482;BME280;5288;42.334;23.876;2022-11-15T07:25:57;56466.44;;;-140.56;75.94
10482;BME280;5288;42.334;23.876;2022-11-15T07:28:25;56488.19;;;-140.56;75.99
10482;BME280;5288;42.334;23.876;2022-11-15T07:30:52;56454.59;;;-140.56;76.15
10482;BME280;5288;42.334;23.876;2022-11-15T07:33:19;56492.13;;;-140.56;75.99
10482;BME280;5288;42.334;23.876;2022-11-15T07:35:46;56488.19;;;-140.56;75.91
10482;BME280;5288;42.334;23.876;2022-11-15T07:38:15;56488.19;;;-140.56;75.69
10482;BME280;5288;42.334;23.876;2022-11-15T07:40:45;56505.97;;;-140.56;75.71
10482;BME280;5288;42.334;23.876;2022-11-15T07:43:13;56492.13;;;-140.56;75.81
10482;BME280;5288;42.334;23.876;2022-11-15T07:45:41;56468.41;;;-140.56;75.64
10482;BME280;5288;42.334;23.876;2022-11-15T07:48:09;56500.03;;;-140.56;75.92
10482;BME280;5288;42.334;23.876;2022-11-15T07:50:36;56440.75;;;-140.56;76.07
10482;BME280;5288;42.334;23.876;2022-11-15T07:53:03;56478.28;;;-140.56;75.84
10482;BME280;5288;42.334;23.876;2022-11-15T07:55:30;56440.75;;;-140.56;76.19
10482;BME280;5288;42.334;23.876;2022-11-15T07:58:01;56468.41;;;-140.56;75.85
10482;BME280;5288;42.334;23.876;2022-11-15T08:00:30;56484.22;;;-140.56;76.32
10482;BME280;5288;42.334;23.876;2022-11-15T08:03:04;56464.47;;;-140.56;76.31
10482;BME280;5288;42.334;23.876;2022-11-15T08:05:31;56448.66;;;-140.56;76.04
10482;BME280;5288;42.334;23.876;2022-11-15T08:07:58;56478.28;;;-140.56;76.06
10482;BME280;5288;42.334;23.876;2022-11-15T08:10:25;56440.75;;;-140.56;75.42
10482;BME280;5288;42.334;23.876;2022-11-15T08:12:59;56482.25;;;-140.56;75.60
10482;BME280;5288;42.334;23.876;2022-11-15T08:15:26;56450.63;;;-140.56;75.76
10482;BME280;5288;42.334;23.876;2022-11-15T08:17:56;56482.25;;;-140.56;75.57
10482;BME280;5288;42.334;23.876;2022-11-15T08:20:23;56476.31;;;-140.56;75.89
10482;BME280;5288;42.334;23.876;2022-11-15T08:22:51;56440.75;;;-140.56;75.49
10482;BME280;5288;42.334;23.876;2022-11-15T08:25:18;56462.47;;;-140.56;74.34
10482;BME280;5288;42.334;23.876;2022-11-15T08:27:45;56444.69;;;-140.56;74.30
10482;BME280;5288;42.334;23.876;2022-11-15T08:30:12;56488.19;;;-140.56;74.78
10482;BME280;5288;42.334;23.876;2022-11-15T08:32:41;56490.16;;;-140.56;75.64
10482;BME280;5288;42.334;23.876;2022-11-15T08:35:10;56502.00;;;-140.56;76.40
10482;BME280;5288;42.334;23.876;2022-11-15T08:37:37;56428.88;;;-140.56;76.62
10482;BME280;5288;42.334;23.876;2022-11-15T08:40:05;56472.38;;;-140.56;75.99
10482;BME280;5288;42.334;23.876;2022-11-15T08:42:33;56448.66;;;-140.56;75.85
10482;BME280;5288;42.334;23.876;2022-11-15T08:45:00;56490.16;;;-140.56;74.83
10482;BME280;5288;42.334;23.876;2022-11-15T08:47:27;56466.44;;;-140.56;74.41
10482;BME280;5288;42.334;23.876;2022-11-15T08:49:54;56507.94;;;-140.56;74.25
10482;BME280;5288;42.334;23.876;2022-11-15T08:52:22;56430.88;;;-140.56;73.95
10482;BME280;5288;42.334;23.876;2022-11-15T08:54:49;56468.41;;;-140.56;73.26
10482;BME280;5288;42.334;23.876;2022-11-15T08:57:16;56474.34;;;-140.56;73.18
10482;BME280;5288;42.334;23.876;2022-11-15T08:59:44;56488.19;;;-140.56;72.80
10482;BME280;5288;42.334;23.876;2022-11-15T09:02:12;56464.47;;;-140.56;73.27
10482;BME280;5288;42.334;23.876;2022-11-15T09:04:40;56428.88;;;-140.56;73.35
10482;BME280;5288;42.334;23.876;2022-11-15T09:07:08;56468.41;;;-140.56;72.90
10482;BME280;5288;42.334;23.876;2022-11-15T09:09:36;56474.34;;;-140.56;72.74
10482;BME280;5288;42.334;23.876;2022-11-15T09:12:05;56448.66;;;-140.56;72.82
10482;BME280;5288;42.334;23.876;2022-11-15T09:14:32;56482.25;;;-140.56;73.25
10482;BME280;5288;42.334;23.876;2022-11-15T09:17:00;56482.25;;;-140.56;73.58
10482;BME280;5288;42.334;23.876;2022-11-15T09:19:27;56444.69;;;-140.56;73.83
10482;BME280;5288;42.334;23.876;2022-11-15T09:21:54;56466.44;;;-140.56;73.33
10482;BME280;5288;42.334;23.876;2022-11-15T09:24:21;56454.59;;;-140.56;73.34
10482;BME280;5288;42.334;23.876;2022-11-15T09:26:51;56448.66;;;-140.56;73.28
10482;BME280;5288;42.334;23.876;2022-11-15T09:29:18;56460.50;;;-140.56;73.16
10482;BME280;5288;42.334;23.876;2022-11-15T09:31:45;56472.38;;;-140.56;72.75
10482;BME280;5288;42.334;23.876;2022-11-15T09:34:12;56476.31;;;-140.56;72.00
10482;BME280;5288;42.334;23.876;2022-11-15T09:36:39;56420.97;;;-140.56;71.98
10482;BME280;5288;42.334;23.876;2022-11-15T09:39:06;56442.72;;;-140.56;71.79
10482;BME280;5288;42.334;23.876;2022-11-15T09:41:50;56444.69;;;-140.56;72.54
10482;BME280;5288;42.334;23.876;2022-11-15T09:44:42;56458.53;;;-140.56;72.98
10482;BME280;5288;42.334;23.876;2022-11-15T09:50:10;56488.19;;;-140.56;72.01
10482;BME280;5288;42.334;23.876;2022-11-15T09:52:41;56464.47;;;-140.56;71.69
10482;BME280;5288;42.334;23.876;2022-11-15T09:55:10;56428.88;;;-140.56;71.80
10482;BME280;5288;42.334;23.876;2022-11-15T09:57:46;56468.41;;;-140.56;71.94
10482;BME280;5288;42.334;23.876;2022-11-15T10:00:19;56417.03;;;-140.56;70.93
10482;BME280;5288;42.334;23.876;2022-11-15T10:02:58;56452.59;;;-140.56;71.13
10482;BME280;5288;42.334;23.876;2022-11-15T10:05:32;56444.69;;;-140.56;71.90
10482;BME280;5288;42.334;23.876;2022-11-15T10:08:05;56434.81;;;-140.56;71.40
10482;BME280;5288;42.334;23.876;2022-11-15T10:10:39;56403.19;;;-140.56;71.14
10482;BME280;5288;42.334;23.876;2022-11-15T10:13:13;56436.78;;;-140.56;70.73
10482;BME280;5288;42.334;23.876;2022-11-15T10:15:43;56460.50;;;-140.56;70.95
10482;BME280;5288;42.334;23.876;2022-11-15T10:18:17;56420.97;;;-140.56;70.53
10482;BME280;5288;42.334;23.876;2022-11-15T10:20:49;56417.03;;;-140.56;68.99
10482;BME280;5288;42.334;23.876;2022-11-15T10:23:19;56420.97;;;-140.56;67.58
10482;BME280;5288;42.334;23.876;2022-11-15T10:25:47;56411.09;;;-140.56;65.67
10482;BME280;5288;42.334;23.876;2022-11-15T10:28:22;56377.50;;;-140.56;64.61
10482;BME280;5288;42.334;23.876;2022-11-15T10:30:51;56379.47;;;-140.56;64.44
10482;BME280;5288;42.334;23.876;2022-11-15T10:33:27;56377.50;;;-140.56;64.91
10482;BME280;5288;42.334;23.876;2022-11-15T10:36:30;56426.91;;;-140.56;64.23
10482;BME280;5288;42.334;23.876;2022-11-15T10:38:57;56395.28;;;-140.56;64.28
10482;BME280;5288;42.334;23.876;2022-11-15T10:41:35;56369.59;;;-140.56;63.96
10482;BME280;5288;42.334;23.876;2022-11-15T10:44:23;56381.44;;;-140.56;62.69
10482;BME280;5288;42.334;23.876;2022-11-15T10:47:24;56375.53;;;-140.56;60.03
10482;BME280;5288;42.334;23.876;2022-11-15T10:49:57;56361.69;;;-140.56;62.04
10482;BME280;5288;42.334;23.876;2022-11-15T10:52:25;56347.84;;;-140.56;62.30
10482;BME280;5288;42.334;23.876;2022-11-15T10:54:56;56383.44;;;-140.56;61.24
10482;BME280;5288;42.334;23.876;2022-11-15T10:57:29;56355.75;;;-140.56;61.21
10482;BME280;5288;42.334;23.876;2022-11-15T11:00:02;56375.53;;;-140.56;60.41
10482;BME280;5288;42.334;23.876;2022-11-15T11:02:33;56353.78;;;-140.56;59.97
10482;BME280;5288;42.334;23.876;2022-11-15T11:05:01;56345.88;;;-140.56;59.35
10482;BME280;5288;42.334;23.876;2022-11-15T11:07:31;56347.84;;;-140.56;58.64
10482;BME280;5288;42.334;23.876;2022-11-15T11:10:00;56339.94;;;-140.56;59.76
10482;BME280;5288;42.334;23.876;2022-11-15T11:12:29;56341.94;;;-140.56;58.16
10482;BME280;5288;42.334;23.876;2022-11-15T11:15:01;56341.94;;;-140.56;57.40
10482;BME280;5288;42.334;23.876;2022-11-15T11:17:36;56336.00;;;-140.56;57.20
10482;BME280;5288;42.334;23.876;2022-11-15T11:20:17;56312.28;;;-140.56;55.80
10482;BME280;5288;42.334;23.876;2022-11-15T11:23:12;56298.44;;;-140.56;55.04
10482;BME280;5288;42.334;23.876;2022-11-15T11:25:48;56312.28;;;-140.56;55.30
10482;BME280;5288;42.334;23.876;2022-11-15T11:28:30;56314.25;;;-140.56;54.68
10482;BME280;5288;42.334;23.876;2022-11-15T11:31:12;56330.06;;;-140.56;54.70
10482;BME280;5288;42.334;23.876;2022-11-15T11:33:46;56314.25;;;-140.56;54.50
10482;BME280;5288;42.334;23.876;2022-11-15T11:36:21;56308.34;;;-140.56;53.56
10482;BME280;5288;42.334;23.876;2022-11-15T11:39:14;56302.41;;;-140.56;53.49
10482;BME280;5288;42.334;23.876;2022-11-15T11:41:51;56276.72;;;-140.56;51.75
10482;BME280;5288;42.334;23.876;2022-11-15T11:44:33;56310.31;;;-140.56;52.41
10482;BME280;5288;42.334;23.876;2022-11-15T11:47:08;56282.63;;;-140.56;52.28
10482;BME280;5288;42.334;23.876;2022-11-15T11:49:41;56290.53;;;-140.56;51.79
10482;BME280;5288;42.334;23.876;2022-11-15T11:52:13;56268.81;;;-140.56;51.88
10482;BME280;5288;42.334;23.876;2022-11-15T11:54:49;56237.19;;;-140.56;51.50
10482;BME280;5288;42.334;23.876;2022-11-15T11:57:26;56282.63;;;-140.56;51.13
10482;BME280;5288;42.334;23.876;2022-11-15T12:00:01;56266.81;;;-140.56;50.20
10482;BME280;5288;42.334;23.876;2022-11-15T12:02:34;56235.22;;;-140.56;49.82
10482;BME280;5288;42.334;23.876;2022-11-15T12:05:09;56229.28;;;-140.56;50.67
10482;BME280;5288;42.334;23.876;2022-11-15T12:07:39;56278.69;;;-140.56;50.83
10482;BME280;5288;42.334;23.876;2022-11-15T12:10:17;56296.47;;;-140.56;50.15
10482;BME280;5288;42.334;23.876;2022-11-15T12:12:54;56286.59;;;-140.56;50.80
10482;BME280;5288;42.334;23.876;2022-11-15T12:15:25;56290.53;;;-140.56;52.16
10482;BME280;5288;42.334;23.876;2022-11-15T12:17:56;56278.69;;;-140.56;51.92
10482;BME280;5288;42.334;23.876;2022-11-15T12:20:25;56253.00;;;-140.56;50.76
10482;BME280;5288;42.334;23.876;2022-11-15T12:22:57;56294.50;;;-140.56;51.03
10482;BME280;5288;42.334;23.876;2022-11-15T12:25:30;56290.53;;;-140.56;50.48
10482;BME280;5288;42.334;23.876;2022-11-15T12:28:03;56268.81;;;-140.56;49.03
10482;BME280;5288;42.334;23.876;2022-11-15T12:30:43;56229.28;;;-140.56;48.36
10482;BME280;5288;42.334;23.876;2022-11-15T12:33:37;56231.25;;;-140.56;46.72
10482;BME280;5288;42.334;23.876;2022-11-15T12:36:08;56272.75;;;-140.56;47.16
10482;BME280;5288;42.334;23.876;2022-11-15T12:38:56;56237.19;;;-140.56;46.23
10482;BME280;5288;42.334;23.876;2022-11-15T12:41:26;56243.13;;;-140.56;46.54
10482;BME280;5288;42.334;23.876;2022-11-15T12:43:54;56227.31;;;-140.56;46.54
10482;BME280;5288;42.334;23.876;2022-11-15T12:49:10;56254.97;;;-140.56;48.86
10482;BME280;5288;42.334;23.876;2022-11-15T12:52:07;56243.13;;;-140.56;48.19
10482;BME280;5288;42.334;23.876;2022-11-15T12:54:56;56227.31;;;-140.56;47.72
10482;BME280;5288;42.334;23.876;2022-11-15T12:57:38;56231.25;;;-140.56;47.85
10482;BME280;5288;42.334;23.876;2022-11-15T13:03:27;56260.91;;;-140.56;49.07
10482;BME280;5288;42.334;23.876;2022-11-15T13:08:55;56258.94;;;-140.56;49.79
10482;BME280;5288;42.334;23.876;2022-11-15T13:11:42;56304.38;;;-140.56;50.52